sensor_id;sensor_type;location;lat;lon;timestamp;temperature;humidity
14252;DHT22;7210;51.502;10.722;2023-04-26T00:01:59;1.50;99.90
14252;DHT22;7210;51.502;10.722;2023-04-26T00:04:32;1.50;99.90
14252;DHT22;7210;51.502;10.722;2023-04-26T00:06:59;1.50;99.90
14252;DHT22;7210;51.502;10.722;2023-04-26T00:09:28;1.60;99.90
14252;DHT22;7210;51.502;10.722;2023-04-26T00:11:56;1.60;99.90
14252;DHT22;7210;51.502;10.722;2023-04-26T00:14:24;1.60;99.90
14252;DHT22;7210;51.502;10.722;2023-04-26T00:16:51;1.50;99.90
14252;DHT22;7210;51.502;10.722;2023-04-26T00:19:18;1.50;99.90
14252;DHT22;7210;51.502;10.722;2023-04-26T00:21:47;1.50;99.90
14252;DHT22;7210;51.502;10.722;2023-04-26T00:24:14;1.60;99.90
14252;DHT22;7210;51.502;10.722;2023-04-26T00:26:41;1.60;99.90
14252;DHT22;7210;51.502;10.722;2023-04-26T00:29:09;1.50;99.90
14252;DHT22;7210;51.502;10.722;2023-04-26T00:31:36;1.50;99.90
14252;DHT22;7210;51.502;10.722;2023-04-26T00:34:03;1.60;99.90
14252;DHT22;7210;51.502;10.722;2023-04-26T00:36:31;1.60;99.90
14252;DHT22;7210;51.502;10.722;2023-04-26T00:38:59;1.60;99.90
14252;DHT22;7210;51.502;10.722;2023-04-26T00:41:27;1.50;99.90
14252;DHT22;7210;51.502;10.722;2023-04-26T00:43:54;1.50;99.90
14252;DHT22;7210;51.502;10.722;2023-04-26T00:46:21;1.50;99.90
14252;DHT22;7210;51.502;10.722;2023-04-26T00:48:49;1.50;99.90
14252;DHT22;7210;51.502;10.722;2023-04-26T00:51:17;1.40;99.90
14252;DHT22;7210;51.502;10.722;2023-04-26T00:53:44;1.30;99.90
14252;DHT22;7210;51.502;10.722;2023-04-26T00:56:15;1.20;99.90
14252;DHT22;7210;51.502;10.722;2023-04-26T00:58:44;1.00;99.90
14252;DHT22;7210;51.502;10.722;2023-04-26T01:01:11;0.90;99.90
14252;DHT22;7210;51.502;10.722;2023-04-26T01:03:39;0.90;99.90
14252;DHT22;7210;51.502;10.722;2023-04-26T01:06:07;0.80;99.90
14252;DHT22;7210;51.502;10.722;2023-04-26T01:08:36;0.80;99.90
14252;DHT22;7210;51.502;10.722;2023-04-26T01:11:03;0.80;99.90
14252;DHT22;7210;51.502;10.722;2023-04-26T01:13:32;0.80;99.90
14252;DHT22;7210;51.502;10.722;2023-04-26T01:16:00;0.80;99.90
14252;DHT22;7210;51.502;10.722;2023-04-26T01:18:28;0.70;99.90
14252;DHT22;7210;51.502;10.722;2023-04-26T01:20:55;0.70;99.90
14252;DHT22;7210;51.502;10.722;2023-04-26T01:23:28;0.60;99.90
14252;DHT22;7210;51.502;10.722;2023-04-26T01:25:55;0.60;99.90
14252;DHT22;7210;51.502;10.722;2023-04-26T01:28:22;0.50;99.90
14252;DHT22;7210;51.502;10.722;2023-04-26T01:30:50;0.40;99.90
14252;DHT22;7210;51.502;10.722;2023-04-26T01:33:17;0.40;99.90
14252;DHT22;7210;51.502;10.722;2023-04-26T01:35:44;0.40;99.90
14252;DHT22;7210;51.502;10.722;2023-04-26T01:38:11;0.40;99.90
14252;DHT22;7210;51.502;10.722;2023-04-26T01:40:40;0.40;99.90
14252;DHT22;7210;51.502;10.722;2023-04-26T01:43:14;0.50;99.90
14252;DHT22;7210;51.502;10.722;2023-04-26T01:45:45;0.50;99.90
14252;DHT22;7210;51.502;10.722;2023-04-26T01:48:28;0.50;99.90
14252;DHT22;7210;51.502;10.722;2023-04-26T01:50:57;0.50;99.90
14252;DHT22;7210;51.502;10.722;2023-04-26T01:53:24;0.50;99.90
14252;DHT22;7210;51.502;10.722;2023-04-26T01:55:53;0.50;99.90
14252;DHT22;7210;51.502;10.722;2023-04-26T01:58:21;0.50;99.90
14252;DHT22;7210;51.502;10.722;2023-04-26T02:00:48;0.50;99.90
14252;DHT22;7210;51.502;10.722;2023-04-26T02:03:15;0.40;99.90
14252;DHT22;7210;51.502;10.722;2023-04-26T02:08:45;0.40;99.90
14252;DHT22;7210;51.502;10.722;2023-04-26T02:11:14;0.40;99.90
14252;DHT22;7210;51.502;10.722;2023-04-26T02:13:41;0.40;99.90
14252;DHT22;7210;51.502;10.722;2023-04-26T02:19:31;0.30;99.90
14252;DHT22;7210;51.502;10.722;2023-04-26T02:21:58;0.30;99.90
14252;DHT22;7210;51.502;10.722;2023-04-26T02:24:26;0.20;99.90
14252;DHT22;7210;51.502;10.722;2023-04-26T02:26:54;0.20;99.90
14252;DHT22;7210;51.502;10.722;2023-04-26T02:29:25;0.10;99.90
14252;DHT22;7210;51.502;10.722;2023-04-26T02:31:53;0.10;99.90
14252;DHT22;7210;51.502;10.722;2023-04-26T02:34:20;0.00;99.90
14252;DHT22;7210;51.502;10.722;2023-04-26T02:36:47;0.20;99.90
14252;DHT22;7210;51.502;10.722;2023-04-26T02:39:14;0.20;99.90
14252;DHT22;7210;51.502;10.722;2023-04-26T02:41:42;0.20;99.90
14252;DHT22;7210;51.502;10.722;2023-04-26T02:44:11;0.20;99.90
14252;DHT22;7210;51.502;10.722;2023-04-26T02:46:39;0.30;99.90
14252;DHT22;7210;51.502;10.722;2023-04-26T02:49:06;0.30;99.90
14252;DHT22;7210;51.502;10.722;2023-04-26T02:51:33;0.30;99.90
14252;DHT22;7210;51.502;10.722;2023-04-26T02:54:01;0.20;99.90
14252;DHT22;7210;51.502;10.722;2023-04-26T02:56:30;0.20;99.90
14252;DHT22;7210;51.502;10.722;2023-04-26T02:58:57;0.10;99.90
14252;DHT22;7210;51.502;10.722;2023-04-26T03:01:25;0.00;99.90
14252;DHT22;7210;51.502;10.722;2023-04-26T03:03:53;0.00;99.90
14252;DHT22;7210;51.502;10.722;2023-04-26T03:06:22;-0.10;99.90
14252;DHT22;7210;51.502;10.722;2023-04-26T03:08:49;-0.10;99.90
14252;DHT22;7210;51.502;10.722;2023-04-26T03:11:16;-0.10;99.90
14252;DHT22;7210;51.502;10.722;2023-04-26T03:13:43;-0.10;99.90
14252;DHT22;7210;51.502;10.722;2023-04-26T03:16:10;-0.10;99.90
14252;DHT22;7210;51.502;10.722;2023-04-26T03:18:39;-0.10;99.90
14252;DHT22;7210;51.502;10.722;2023-04-26T03:21:08;-0.10;99.90
14252;DHT22;7210;51.502;10.722;2023-04-26T03:23:35;-0.10;99.90
14252;DHT22;7210;51.502;10.722;2023-04-26T03:26:03;-0.20;99.90
14252;DHT22;7210;51.502;10.722;2023-04-26T03:28:30;-0.10;99.90
14252;DHT22;7210;51.502;10.722;2023-04-26T03:30:58;-0.10;99.90
14252;DHT22;7210;51.502;10.722;2023-04-26T03:33:29;0.00;99.90
14252;DHT22;7210;51.502;10.722;2023-04-26T03:35:59;-0.10;99.90
14252;DHT22;7210;51.502;10.722;2023-04-26T03:38:26;-0.20;99.90
14252;DHT22;7210;51.502;10.722;2023-04-26T03:40:53;-0.20;99.90
14252;DHT22;7210;51.502;10.722;2023-04-26T03:43:21;-0.20;99.90
14252;DHT22;7210;51.502;10.722;2023-04-26T03:45:49;-0.20;99.90
14252;DHT22;7210;51.502;10.722;2023-04-26T03:48:17;-0.20;99.90
14252;DHT22;7210;51.502;10.722;2023-04-26T03:50:46;-0.20;99.90
14252;DHT22;7210;51.502;10.722;2023-04-26T03:53:15;-0.20;99.90
14252;DHT22;7210;51.502;10.722;2023-04-26T03:55:43;-0.30;99.90
14252;DHT22;7210;51.502;10.722;2023-04-26T03:58:10;-0.40;99.90
14252;DHT22;7210;51.502;10.722;2023-04-26T04:00:40;-0.40;99.90
14252;DHT22;7210;51.502;10.722;2023-04-26T04:03:08;-0.50;99.90
14252;DHT22;7210;51.502;10.722;2023-04-26T04:05:35;-0.50;99.90
14252;DHT22;7210;51.502;10.722;2023-04-26T04:08:03;-0.50;99.90
14252;DHT22;7210;51.502;10.722;2023-04-26T04:10:31;-0.50;99.90
14252;DHT22;7210;51.502;10.722;2023-04-26T04:12:58;-0.50;99.90
14252;DHT22;7210;51.502;10.722;2023-04-26T04:15:26;-0.50;99.90
14252;DHT22;7210;51.502;10.722;2023-04-26T04:17:53;-0.50;99.90
14252;DHT22;7210;51.502;10.722;2023-04-26T04:20:21;-0.40;99.90
14252;DHT22;7210;51.502;10.722;2023-04-26T04:22:48;-0.40;99.90
14252;DHT22;7210;51.502;10.722;2023-04-26T04:25:16;-0.30;99.90
14252;DHT22;7210;51.502;10.722;2023-04-26T04:27:47;-0.20;99.90
14252;DHT22;7210;51.502;10.722;2023-04-26T04:30:16;-0.20;99.90
14252;DHT22;7210;51.502;10.722;2023-04-26T04:32:43;-0.20;99.90
14252;DHT22;7210;51.502;10.722;2023-04-26T04:35:13;-0.20;99.90
14252;DHT22;7210;51.502;10.722;2023-04-26T04:37:40;-0.20;99.90
14252;DHT22;7210;51.502;10.722;2023-04-26T04:40:09;-0.30;99.90
14252;DHT22;7210;51.502;10.722;2023-04-26T04:42:40;-0.30;99.90
14252;DHT22;7210;51.502;10.722;2023-04-26T04:45:10;-0.30;99.90
14252;DHT22;7210;51.502;10.722;2023-04-26T04:47:39;-0.40;99.90
14252;DHT22;7210;51.502;10.722;2023-04-26T04:50:07;-0.30;99.90
14252;DHT22;7210;51.502;10.722;2023-04-26T04:52:35;-0.20;99.90
14252;DHT22;7210;51.502;10.722;2023-04-26T04:55:03;-0.20;99.90
14252;DHT22;7210;51.502;10.722;2023-04-26T04:57:32;-0.10;99.90
14252;DHT22;7210;51.502;10.722;2023-04-26T04:59:59;-0.10;99.90
14252;DHT22;7210;51.502;10.722;2023-04-26T05:02:38;0.00;99.90
14252;DHT22;7210;51.502;10.722;2023-04-26T05:05:06;0.00;99.90
14252;DHT22;7210;51.502;10.722;2023-04-26T05:07:35;0.10;99.90
14252;DHT22;7210;51.502;10.722;2023-04-26T05:10:03;0.20;99.90
14252;DHT22;7210;51.502;10.722;2023-04-26T05:12:30;0.30;99.90
14252;DHT22;7210;51.502;10.722;2023-04-26T05:14:58;0.50;99.90
14252;DHT22;7210;51.502;10.722;2023-04-26T05:17:25;0.50;99.90
14252;DHT22;7210;51.502;10.722;2023-04-26T05:19:53;0.60;99.90
14252;DHT22;7210;51.502;10.722;2023-04-26T05:22:21;0.70;99.90
14252;DHT22;7210;51.502;10.722;2023-04-26T05:24:49;0.90;99.90
14252;DHT22;7210;51.502;10.722;2023-04-26T05:27:17;1.00;99.90
14252;DHT22;7210;51.502;10.722;2023-04-26T05:29:52;1.10;99.90
14252;DHT22;7210;51.502;10.722;2023-04-26T05:32:43;1.10;99.90
14252;DHT22;7210;51.502;10.722;2023-04-26T05:35:18;1.20;99.90
14252;DHT22;7210;51.502;10.722;2023-04-26T05:37:45;1.40;99.90
14252;DHT22;7210;51.502;10.722;2023-04-26T05:40:13;1.50;99.90
14252;DHT22;7210;51.502;10.722;2023-04-26T05:42:41;1.70;99.90
14252;DHT22;7210;51.502;10.722;2023-04-26T05:45:09;1.80;99.90
14252;DHT22;7210;51.502;10.722;2023-04-26T05:47:39;1.90;99.90
14252;DHT22;7210;51.502;10.722;2023-04-26T05:50:08;2.00;99.90
14252;DHT22;7210;51.502;10.722;2023-04-26T05:52:37;2.10;99.90
14252;DHT22;7210;51.502;10.722;2023-04-26T05:55:05;2.30;99.90
14252;DHT22;7210;51.502;10.722;2023-04-26T05:57:34;2.40;99.90
14252;DHT22;7210;51.502;10.722;2023-04-26T06:00:05;2.60;99.90
14252;DHT22;7210;51.502;10.722;2023-04-26T06:02:43;2.70;99.90
14252;DHT22;7210;51.502;10.722;2023-04-26T06:05:17;3.00;99.90
14252;DHT22;7210;51.502;10.722;2023-04-26T06:07:46;3.10;99.90
14252;DHT22;7210;51.502;10.722;2023-04-26T06:10:13;3.20;99.90
14252;DHT22;7210;51.502;10.722;2023-04-26T06:12:41;3.30;99.90
14252;DHT22;7210;51.502;10.722;2023-04-26T06:15:09;3.50;99.90
14252;DHT22;7210;51.502;10.722;2023-04-26T06:17:39;3.60;99.90
14252;DHT22;7210;51.502;10.722;2023-04-26T06:20:08;3.70;99.90
14252;DHT22;7210;51.502;10.722;2023-04-26T06:22:36;3.80;99.90
14252;DHT22;7210;51.502;10.722;2023-04-26T06:25:07;3.90;99.90
14252;DHT22;7210;51.502;10.722;2023-04-26T06:27:36;4.00;99.90
14252;DHT22;7210;51.502;10.722;2023-04-26T06:30:06;4.00;99.90
14252;DHT22;7210;51.502;10.722;2023-04-26T06:32:37;4.00;99.90
14252;DHT22;7210;51.502;10.722;2023-04-26T06:35:07;4.10;99.90
14252;DHT22;7210;51.502;10.722;2023-04-26T06:37:35;4.20;99.90
14252;DHT22;7210;51.502;10.722;2023-04-26T06:40:03;4.30;99.90
14252;DHT22;7210;51.502;10.722;2023-04-26T06:42:33;4.20;99.90
14252;DHT22;7210;51.502;10.722;2023-04-26T06:45:16;4.30;99.90
14252;DHT22;7210;51.502;10.722;2023-04-26T06:47:44;4.40;99.90
14252;DHT22;7210;51.502;10.722;2023-04-26T06:50:12;4.40;99.90
14252;DHT22;7210;51.502;10.722;2023-04-26T06:52:39;4.50;99.90
14252;DHT22;7210;51.502;10.722;2023-04-26T06:55:09;4.70;99.90
14252;DHT22;7210;51.502;10.722;2023-04-26T06:57:36;4.70;99.90
14252;DHT22;7210;51.502;10.722;2023-04-26T07:00:05;4.70;99.90
14252;DHT22;7210;51.502;10.722;2023-04-26T07:02:34;4.80;99.90
14252;DHT22;7210;51.502;10.722;2023-04-26T07:05:05;4.90;99.90
14252;DHT22;7210;51.502;10.722;2023-04-26T07:07:32;5.10;99.90
14252;DHT22;7210;51.502;10.722;2023-04-26T07:09:59;5.10;99.90
14252;DHT22;7210;51.502;10.722;2023-04-26T07:12:28;5.10;99.90
14252;DHT22;7210;51.502;10.722;2023-04-26T07:14:56;5.20;99.90
14252;DHT22;7210;51.502;10.722;2023-04-26T07:17:23;5.30;99.90
14252;DHT22;7210;51.502;10.722;2023-04-26T07:19:50;5.40;99.90
14252;DHT22;7210;51.502;10.722;2023-04-26T07:22:17;5.60;99.90
14252;DHT22;7210;51.502;10.722;2023-04-26T07:24:44;5.60;99.90
14252;DHT22;7210;51.502;10.722;2023-04-26T07:27:11;5.60;99.90
14252;DHT22;7210;51.502;10.722;2023-04-26T07:29:40;5.60;99.90
14252;DHT22;7210;51.502;10.722;2023-04-26T07:32:07;5.60;99.90
14252;DHT22;7210;51.502;10.722;2023-04-26T07:34:34;5.60;99.90
14252;DHT22;7210;51.502;10.722;2023-04-26T07:37:01;5.80;99.90
14252;DHT22;7210;51.502;10.722;2023-04-26T07:39:29;5.90;99.90
14252;DHT22;7210;51.502;10.722;2023-04-26T07:41:56;5.90;99.90
14252;DHT22;7210;51.502;10.722;2023-04-26T07:44:23;5.90;99.90
14252;DHT22;7210;51.502;10.722;2023-04-26T07:46:51;5.90;99.90
14252;DHT22;7210;51.502;10.722;2023-04-26T07:49:19;6.10;99.90
14252;DHT22;7210;51.502;10.722;2023-04-26T07:51:47;6.30;99.90
14252;DHT22;7210;51.502;10.722;2023-04-26T07:54:15;6.20;99.90
14252;DHT22;7210;51.502;10.722;2023-04-26T07:56:43;6.20;99.90
14252;DHT22;7210;51.502;10.722;2023-04-26T07:59:10;6.00;99.90
14252;DHT22;7210;51.502;10.722;2023-04-26T08:01:37;6.10;99.90
14252;DHT22;7210;51.502;10.722;2023-04-26T08:04:05;6.20;99.90
14252;DHT22;7210;51.502;10.722;2023-04-26T08:06:33;6.40;99.90
14252;DHT22;7210;51.502;10.722;2023-04-26T08:09:00;6.50;99.90
14252;DHT22;7210;51.502;10.722;2023-04-26T08:11:29;6.60;99.90
14252;DHT22;7210;51.502;10.722;2023-04-26T08:13:57;6.50;99.90
14252;DHT22;7210;51.502;10.722;2023-04-26T08:16:24;6.30;99.90
14252;DHT22;7210;51.502;10.722;2023-04-26T08:18:51;6.30;99.90
14252;DHT22;7210;51.502;10.722;2023-04-26T08:21:20;6.40;99.90
14252;DHT22;7210;51.502;10.722;2023-04-26T08:23:48;6.50;99.90
14252;DHT22;7210;51.502;10.722;2023-04-26T08:26:15;6.60;99.90
14252;DHT22;7210;51.502;10.722;2023-04-26T08:28:42;6.90;99.90
14252;DHT22;7210;51.502;10.722;2023-04-26T08:31:09;7.10;99.90
14252;DHT22;7210;51.502;10.722;2023-04-26T08:33:36;6.80;99.90
14252;DHT22;7210;51.502;10.722;2023-04-26T08:36:04;6.70;99.90
14252;DHT22;7210;51.502;10.722;2023-04-26T08:38:34;6.60;99.90
14252;DHT22;7210;51.502;10.722;2023-04-26T08:41:04;6.50;99.90
14252;DHT22;7210;51.502;10.722;2023-04-26T08:43:36;6.40;99.90
14252;DHT22;7210;51.502;10.722;2023-04-26T08:46:06;6.60;99.90
14252;DHT22;7210;51.502;10.722;2023-04-26T08:48:38;6.90;99.90
14252;DHT22;7210;51.502;10.722;2023-04-26T08:51:06;7.10;99.90
14252;DHT22;7210;51.502;10.722;2023-04-26T08:53:38;7.30;99.90
14252;DHT22;7210;51.502;10.722;2023-04-26T08:56:07;7.40;99.90
14252;DHT22;7210;51.502;10.722;2023-04-26T08:58:37;7.30;99.90
14252;DHT22;7210;51.502;10.722;2023-04-26T09:01:04;7.40;99.90
14252;DHT22;7210;51.502;10.722;2023-04-26T09:03:33;7.50;99.90
14252;DHT22;7210;51.502;10.722;2023-04-26T09:06:01;7.70;99.90
14252;DHT22;7210;51.502;10.722;2023-04-26T09:08:29;7.80;99.90
14252;DHT22;7210;51.502;10.722;2023-04-26T09:11:01;8.00;99.90
14252;DHT22;7210;51.502;10.722;2023-04-26T09:13:29;8.10;99.90
14252;DHT22;7210;51.502;10.722;2023-04-26T09:15:56;8.20;99.90
14252;DHT22;7210;51.502;10.722;2023-04-26T09:18:23;8.10;99.90
14252;DHT22;7210;51.502;10.722;2023-04-26T09:21:05;7.90;99.90
14252;DHT22;7210;51.502;10.722;2023-04-26T09:23:32;7.70;99.90
14252;DHT22;7210;51.502;10.722;2023-04-26T09:26:20;7.50;99.90
14252;DHT22;7210;51.502;10.722;2023-04-26T09:28:48;7.70;99.90
14252;DHT22;7210;51.502;10.722;2023-04-26T09:31:35;7.70;99.90
14252;DHT22;7210;51.502;10.722;2023-04-26T09:34:04;8.00;99.90
14252;DHT22;7210;51.502;10.722;2023-04-26T09:36:31;8.20;99.90
14252;DHT22;7210;51.502;10.722;2023-04-26T09:38:58;8.20;99.90
14252;DHT22;7210;51.502;10.722;2023-04-26T09:41:41;8.30;99.90
14252;DHT22;7210;51.502;10.722;2023-04-26T09:44:20;8.30;99.90
14252;DHT22;7210;51.502;10.722;2023-04-26T09:47:02;8.20;99.90
14252;DHT22;7210;51.502;10.722;2023-04-26T09:49:31;8.10;99.90
14252;DHT22;7210;51.502;10.722;2023-04-26T09:52:00;8.10;99.90
14252;DHT22;7210;51.502;10.722;2023-04-26T09:54:43;8.00;99.90
14252;DHT22;7210;51.502;10.722;2023-04-26T09:57:13;7.90;99.90
14252;DHT22;7210;51.502;10.722;2023-04-26T09:59:43;7.90;99.90
14252;DHT22;7210;51.502;10.722;2023-04-26T10:02:17;7.60;99.90
14252;DHT22;7210;51.502;10.722;2023-04-26T10:04:47;7.50;99.90
14252;DHT22;7210;51.502;10.722;2023-04-26T10:07:17;7.40;99.90
14252;DHT22;7210;51.502;10.722;2023-04-26T10:09:46;7.30;99.90
14252;DHT22;7210;51.502;10.722;2023-04-26T10:12:17;7.40;99.90
14252;DHT22;7210;51.502;10.722;2023-04-26T10:14:46;7.50;99.90
14252;DHT22;7210;51.502;10.722;2023-04-26T10:17:13;7.60;99.90
14252;DHT22;7210;51.502;10.722;2023-04-26T10:19:42;7.70;99.90
14252;DHT22;7210;51.502;10.722;2023-04-26T10:22:15;7.90;99.90
14252;DHT22;7210;51.502;10.722;2023-04-26T10:24:47;8.00;99.90
14252;DHT22;7210;51.502;10.722;2023-04-26T10:27:16;8.20;99.90
14252;DHT22;7210;51.502;10.722;2023-04-26T10:30:13;8.30;1.00
14252;DHT22;7210;51.502;10.722;2023-04-26T10:33:14;8.50;1.00
14252;DHT22;7210;51.502;10.722;2023-04-26T10:36:14;8.50;1.00
14252;DHT22;7210;51.502;10.722;2023-04-26T10:39:19;8.60;1.00
14252;DHT22;7210;51.502;10.722;2023-04-26T10:41:47;8.50;1.00
14252;DHT22;7210;51.502;10.722;2023-04-26T10:44:38;8.30;1.00
14252;DHT22;7210;51.502;10.722;2023-04-26T10:47:20;8.40;1.00
14252;DHT22;7210;51.502;10.722;2023-04-26T10:50:01;8.50;1.00
14252;DHT22;7210;51.502;10.722;2023-04-26T10:52:30;8.70;1.00
14252;DHT22;7210;51.502;10.722;2023-04-26T10:54:58;9.00;1.00
14252;DHT22;7210;51.502;10.722;2023-04-26T10:57:47;9.20;1.00
14252;DHT22;7210;51.502;10.722;2023-04-26T11:00:28;9.20;1.00
14252;DHT22;7210;51.502;10.722;2023-04-26T11:02:58;9.20;1.00
14252;DHT22;7210;51.502;10.722;2023-04-26T11:05:52;9.40;1.00
14252;DHT22;7210;51.502;10.722;2023-04-26T11:08:23;9.50;1.00
14252;DHT22;7210;51.502;10.722;2023-04-26T11:11:05;9.30;1.00
14252;DHT22;7210;51.502;10.722;2023-04-26T11:13:37;9.10;1.00
14252;DHT22;7210;51.502;10.722;2023-04-26T11:16:08;9.00;1.00
14252;DHT22;7210;51.502;10.722;2023-04-26T11:18:41;9.00;1.00
14252;DHT22;7210;51.502;10.722;2023-04-26T11:21:10;9.20;1.00
14252;DHT22;7210;51.502;10.722;2023-04-26T11:23:42;8.90;1.00
14252;DHT22;7210;51.502;10.722;2023-04-26T11:26:18;9.00;1.00
14252;DHT22;7210;51.502;10.722;2023-04-26T11:28:45;9.40;1.00
14252;DHT22;7210;51.502;10.722;2023-04-26T11:31:18;9.50;1.00
14252;DHT22;7210;51.502;10.722;2023-04-26T11:33:45;9.50;1.00
14252;DHT22;7210;51.502;10.722;2023-04-26T11:36:12;9.70;1.00
14252;DHT22;7210;51.502;10.722;2023-04-26T11:38:40;9.60;1.00
14252;DHT22;7210;51.502;10.722;2023-04-26T11:41:07;9.50;1.00
14252;DHT22;7210;51.502;10.722;2023-04-26T11:43:36;9.40;1.00
14252;DHT22;7210;51.502;10.722;2023-04-26T11:46:06;9.40;1.00
14252;DHT22;7210;51.502;10.722;2023-04-26T11:48:36;9.50;1.00
14252;DHT22;7210;51.502;10.722;2023-04-26T11:51:06;9.40;1.00
14252;DHT22;7210;51.502;10.722;2023-04-26T11:53:35;9.50;1.00
14252;DHT22;7210;51.502;10.722;2023-04-26T11:56:04;9.50;1.00
14252;DHT22;7210;51.502;10.722;2023-04-26T11:58:42;9.60;1.00
14252;DHT22;7210;51.502;10.722;2023-04-26T12:01:10;9.80;1.00
14252;DHT22;7210;51.502;10.722;2023-04-26T12:03:38;9.90;1.00
14252;DHT22;7210;51.502;10.722;2023-04-26T12:06:06;9.90;1.00
14252;DHT22;7210;51.502;10.722;2023-04-26T12:08:33;10.00;1.00
14252;DHT22;7210;51.502;10.722;2023-04-26T12:11:01;10.20;1.00
14252;DHT22;7210;51.502;10.722;2023-04-26T12:13:29;10.20;1.00
14252;DHT22;7210;51.502;10.722;2023-04-26T12:15:57;10.10;1.00
14252;DHT22;7210;51.502;10.722;2023-04-26T12:18:31;10.10;1.00
14252;DHT22;7210;51.502;10.722;2023-04-26T12:21:00;10.00;1.00
14252;DHT22;7210;51.502;10.722;2023-04-26T12:23:35;10.00;1.00
14252;DHT22;7210;51.502;10.722;2023-04-26T12:26:05;10.00;1.00
14252;DHT22;7210;51.502;10.722;2023-04-26T12:28:40;9.90;1.00
14252;DHT22;7210;51.502;10.722;2023-04-26T12:31:08;9.80;1.00
14252;DHT22;7210;51.502;10.722;2023-04-26T12:33:35;10.00;1.00
14252;DHT22;7210;51.502;10.722;2023-04-26T12:36:08;10.10;1.00
14252;DHT22;7210;51.502;10.722;2023-04-26T12:38:36;10.40;1.00
14252;DHT22;7210;51.502;10.722;2023-04-26T12:41:04;10.60;1.00
14252;DHT22;7210;51.502;10.722;2023-04-26T12:43:32;10.70;1.00
14252;DHT22;7210;51.502;10.722;2023-04-26T12:45:59;10.90;1.00
14252;DHT22;7210;51.502;10.722;2023-04-26T12:48:26;10.90;1.00
14252;DHT22;7210;51.502;10.722;2023-04-26T12:50:53;10.80;1.00
14252;DHT22;7210;51.502;10.722;2023-04-26T12:53:22;10.60;1.00
14252;DHT22;7210;51.502;10.722;2023-04-26T12:55:49;10.40;1.00
14252;DHT22;7210;51.502;10.722;2023-04-26T12:58:17;10.20;1.00
14252;DHT22;7210;51.502;10.722;2023-04-26T13:00:44;9.80;1.00
14252;DHT22;7210;51.502;10.722;2023-04-26T13:03:11;9.70;1.00
14252;DHT22;7210;51.502;10.722;2023-04-26T13:05:39;9.80;1.00
14252;DHT22;7210;51.502;10.722;2023-04-26T13:08:06;10.10;1.00
14252;DHT22;7210;51.502;10.722;2023-04-26T13:10:35;10.20;1.00
14252;DHT22;7210;51.502;10.722;2023-04-26T13:13:02;10.40;1.00
14252;DHT22;7210;51.502;10.722;2023-04-26T13:15:29;10.70;1.00
14252;DHT22;7210;51.502;10.722;2023-04-26T13:17:56;10.90;1.00
14252;DHT22;7210;51.502;10.722;2023-04-26T13:20:23;10.70;1.00
14252;DHT22;7210;51.502;10.722;2023-04-26T13:22:51;10.50;1.00
14252;DHT22;7210;51.502;10.722;2023-04-26T13:25:18;10.40;1.00
14252;DHT22;7210;51.502;10.722;2023-04-26T13:27:47;10.30;1.00
14252;DHT22;7210;51.502;10.722;2023-04-26T13:30:16;10.30;1.00
14252;DHT22;7210;51.502;10.722;2023-04-26T13:32:43;10.30;1.00
14252;DHT22;7210;51.502;10.722;2023-04-26T13:35:16;10.20;1.00
14252;DHT22;7210;51.502;10.722;2023-04-26T13:37:44;10.20;1.00
14252;DHT22;7210;51.502;10.722;2023-04-26T13:40:11;10.20;1.00
14252;DHT22;7210;51.502;10.722;2023-04-26T13:42:39;10.20;1.00
14252;DHT22;7210;51.502;10.722;2023-04-26T13:45:09;10.10;1.00
14252;DHT22;7210;51.502;10.722;2023-04-26T13:47:37;10.00;1.00
14252;DHT22;7210;51.502;10.722;2023-04-26T13:50:05;10.00;1.00
14252;DHT22;7210;51.502;10.722;2023-04-26T13:52:32;10.20;1.00
14252;DHT22;7210;51.502;10.722;2023-04-26T13:55:00;10.40;1.00
14252;DHT22;7210;51.502;10.722;2023-04-26T13:57:27;10.50;1.00
14252;DHT22;7210;51.502;10.722;2023-04-26T13:59:54;10.70;1.00
14252;DHT22;7210;51.502;10.722;2023-04-26T14:02:23;10.40;1.00
14252;DHT22;7210;51.502;10.722;2023-04-26T14:04:50;10.20;1.00
14252;DHT22;7210;51.502;10.722;2023-04-26T14:07:17;10.20;1.00
14252;DHT22;7210;51.502;10.722;2023-04-26T14:09:46;10.30;1.00
14252;DHT22;7210;51.502;10.722;2023-04-26T14:12:13;10.20;1.00
14252;DHT22;7210;51.502;10.722;2023-04-26T14:14:41;10.20;1.00
14252;DHT22;7210;51.502;10.722;2023-04-26T14:17:08;10.40;1.00
14252;DHT22;7210;51.502;10.722;2023-04-26T14:19:37;10.40;1.00
14252;DHT22;7210;51.502;10.722;2023-04-26T14:22:04;10.30;1.00
14252;DHT22;7210;51.502;10.722;2023-04-26T14:24:31;10.30;1.00
14252;DHT22;7210;51.502;10.722;2023-04-26T14:27:00;10.20;1.00
14252;DHT22;7210;51.502;10.722;2023-04-26T14:29:27;10.30;1.00
14252;DHT22;7210;51.502;10.722;2023-04-26T14:31:55;10.50;1.00
14252;DHT22;7210;51.502;10.722;2023-04-26T14:34:22;10.40;1.00
14252;DHT22;7210;51.502;10.722;2023-04-26T14:36:51;10.20;1.00
14252;DHT22;7210;51.502;10.722;2023-04-26T14:39:18;10.30;1.00
14252;DHT22;7210;51.502;10.722;2023-04-26T14:41:45;10.10;1.00
14252;DHT22;7210;51.502;10.722;2023-04-26T14:44:12;9.90;1.00
14252;DHT22;7210;51.502;10.722;2023-04-26T14:46:39;9.80;1.00
14252;DHT22;7210;51.502;10.722;2023-04-26T14:49:06;9.80;1.00
14252;DHT22;7210;51.502;10.722;2023-04-26T14:51:34;9.90;1.00
14252;DHT22;7210;51.502;10.722;2023-04-26T14:54:06;9.80;1.00
14252;DHT22;7210;51.502;10.722;2023-04-26T14:56:33;9.90;1.00
14252;DHT22;7210;51.502;10.722;2023-04-26T14:59:02;9.90;1.00
14252;DHT22;7210;51.502;10.722;2023-04-26T15:01:30;9.90;1.00
14252;DHT22;7210;51.502;10.722;2023-04-26T15:03:57;9.80;1.00
14252;DHT22;7210;51.502;10.722;2023-04-26T15:06:24;9.80;1.00
14252;DHT22;7210;51.502;10.722;2023-04-26T15:08:51;9.70;1.00
14252;DHT22;7210;51.502;10.722;2023-04-26T15:11:20;9.70;1.00
14252;DHT22;7210;51.502;10.722;2023-04-26T15:13:47;9.90;1.00
14252;DHT22;7210;51.502;10.722;2023-04-26T15:16:14;9.90;1.00
14252;DHT22;7210;51.502;10.722;2023-04-26T15:18:42;9.90;1.00
14252;DHT22;7210;51.502;10.722;2023-04-26T15:21:15;9.90;1.00
14252;DHT22;7210;51.502;10.722;2023-04-26T15:23:42;9.80;1.00
14252;DHT22;7210;51.502;10.722;2023-04-26T15:26:09;9.70;1.00
14252;DHT22;7210;51.502;10.722;2023-04-26T15:28:38;9.70;1.00
14252;DHT22;7210;51.502;10.722;2023-04-26T15:31:07;9.80;1.00
14252;DHT22;7210;51.502;10.722;2023-04-26T15:33:36;9.70;1.00
14252;DHT22;7210;51.502;10.722;2023-04-26T15:36:05;9.60;1.00
14252;DHT22;7210;51.502;10.722;2023-04-26T15:38:33;9.50;1.00
14252;DHT22;7210;51.502;10.722;2023-04-26T15:41:04;9.50;1.00
14252;DHT22;7210;51.502;10.722;2023-04-26T15:43:32;9.40;1.00
14252;DHT22;7210;51.502;10.722;2023-04-26T15:46:00;9.30;1.00
14252;DHT22;7210;51.502;10.722;2023-04-26T15:48:27;9.20;1.00
14252;DHT22;7210;51.502;10.722;2023-04-26T15:50:54;9.20;1.00
14252;DHT22;7210;51.502;10.722;2023-04-26T15:53:22;9.10;1.00
14252;DHT22;7210;51.502;10.722;2023-04-26T15:55:52;9.00;1.00
14252;DHT22;7210;51.502;10.722;2023-04-26T15:58:19;9.00;1.00
14252;DHT22;7210;51.502;10.722;2023-04-26T16:00:46;8.90;1.00
14252;DHT22;7210;51.502;10.722;2023-04-26T16:03:15;8.90;1.00
14252;DHT22;7210;51.502;10.722;2023-04-26T16:05:42;8.90;1.00
14252;DHT22;7210;51.502;10.722;2023-04-26T16:08:09;9.00;1.00